createdAt,value
2023-02-25T00:02:22.321Z,98957.28
2023-02-25T00:04:50.079Z,98952.84
2023-02-25T00:07:17.899Z,98961.47
2023-02-25T00:09:46.212Z,98966.44
2023-02-25T00:12:16.886Z,98965.06
2023-02-25T00:14:45.906Z,98970.63
2023-02-25T00:17:16.011Z,98968.63
2023-02-25T00:19:43.592Z,98971.41
2023-02-25T00:22:11.242Z,98977.03
2023-02-25T00:24:38.933Z,98989.69
2023-02-25T00:27:06.608Z,98990.69
2023-02-25T00:29:34.615Z,98992.16
2023-02-25T00:32:03.778Z,99002.47
2023-02-25T00:34:31.710Z,98995.44
2023-02-25T00:36:59.554Z,98988.28
2023-02-25T00:39:41.918Z,98993.72
2023-02-25T00:42:18.705Z,98999.44
2023-02-25T00:44:47.297Z,98994.50
2023-02-25T00:47:19.719Z,98992.97
2023-02-25T00:49:48.435Z,99006.97
2023-02-25T00:52:17.742Z,99008.63
2023-02-25T00:54:45.314Z,99015.81
2023-02-25T00:57:12.907Z,99007.41
2023-02-25T00:59:40.497Z,99006.66
2023-02-25T01:02:08.036Z,99004.19
2023-02-25T01:04:36.922Z,98983.19
2023-02-25T01:07:04.549Z,98985.72
2023-02-25T01:09:32.100Z,98983.88
2023-02-25T01:11:59.931Z,98985.91
2023-02-25T01:14:29.533Z,98977.03
2023-02-25T01:16:57.741Z,98986.47
2023-02-25T01:19:27.164Z,98989.50
2023-02-25T01:21:58.622Z,98982.16
2023-02-25T01:24:28.750Z,98999.53
2023-02-25T01:26:59.297Z,98999.25
2023-02-25T01:29:29.221Z,99000.69
2023-02-25T01:32:01.331Z,98993.53
2023-02-25T01:34:38.559Z,98985.22
2023-02-25T01:37:08.358Z,98984.13
2023-02-25T01:39:36.213Z,98982.88
2023-02-25T01:42:12.857Z,98972.03
2023-02-25T01:45:25.178Z,98974.50
2023-02-25T01:47:57.945Z,98974.94
2023-02-25T01:50:32.390Z,98970.28
2023-02-25T01:53:09.718Z,98971.03
2023-02-25T01:55:41.973Z,98980.00
2023-02-25T01:58:10.316Z,98977.94
2023-02-25T02:00:39.495Z,98974.38
2023-02-25T02:03:15.846Z,98972.34
2023-02-25T02:06:08.037Z,98971.34
2023-02-25T02:08:37.874Z,98982.16
2023-02-25T02:11:06.238Z,98991.78
2023-02-25T02:13:37.706Z,98989.00
2023-02-25T02:16:28.857Z,98980.34
2023-02-25T02:19:01.804Z,98985.06
2023-02-25T02:21:50.555Z,98998.50
2023-02-25T02:24:48.465Z,98991.34
2023-02-25T02:27:24.489Z,98985.97
2023-02-25T02:30:28.786Z,99000.53
2023-02-25T02:33:05.207Z,98994.94
2023-02-25T02:35:41.043Z,98993.38
2023-02-25T02:38:22.719Z,98991.53
2023-02-25T02:41:02.054Z,98996.19
2023-02-25T02:43:40.474Z,98978.41
2023-02-25T02:46:16.628Z,98978.59
2023-02-25T02:48:49.668Z,98974.50
2023-02-25T02:51:20.930Z,98980.63
2023-02-25T02:53:53.361Z,98977.16
2023-02-25T02:56:25.816Z,98980.44
2023-02-25T02:58:58.525Z,98974.31
2023-02-25T03:01:33.602Z,98983.09
2023-02-25T03:04:06.375Z,98987.47
2023-02-25T03:06:38.559Z,98987.06
2023-02-25T03:09:10.918Z,98986.06
2023-02-25T03:11:38.844Z,98987.28
2023-02-25T03:14:09.224Z,98996.47
2023-02-25T03:16:42.362Z,98999.13
2023-02-25T03:19:14.854Z,98997.72
2023-02-25T03:21:47.570Z,99002.19
2023-02-25T03:24:22.239Z,99000.16
2023-02-25T03:26:53.018Z,98998.94
2023-02-25T03:29:23.918Z,99009.47
2023-02-25T03:31:58.062Z,99002.91
2023-02-25T03:34:33.712Z,99000.25
2023-02-25T03:37:04.528Z,98998.81
2023-02-25T03:39:37.312Z,99005.00
2023-02-25T03:42:13.464Z,99001.78
2023-02-25T03:44:47.127Z,99007.66
2023-02-25T03:47:17.141Z,99001.91
2023-02-25T03:49:53.657Z,99011.84
2023-02-25T03:52:24.689Z,99010.69
2023-02-25T03:54:54.090Z,99013.13
2023-02-25T03:57:24.936Z,99027.41
2023-02-25T04:00:00.464Z,99028.88
2023-02-25T04:02:32.809Z,99019.06
2023-02-25T04:05:02.000Z,99025.97
2023-02-25T04:07:30.702Z,99026.09
2023-02-25T04:09:59.477Z,99032.69
2023-02-25T04:12:27.644Z,99024.72
2023-02-25T04:14:56.352Z,99035.44
2023-02-25T04:17:24.467Z,99032.06
2023-02-25T04:19:52.104Z,99032.34
2023-02-25T04:22:22.656Z,99030.25
2023-02-25T04:24:51.501Z,99028.50
2023-02-25T04:27:19.273Z,99023.66
2023-02-25T04:29:47.139Z,99026.94
2023-02-25T04:32:15.400Z,99018.47
2023-02-25T04:34:43.729Z,99021.72
2023-02-25T04:37:12.330Z,99019.44
2023-02-25T04:39:41.511Z,99029.53
2023-02-25T04:42:09.658Z,99020.47
2023-02-25T04:44:37.548Z,99029.59
2023-02-25T04:47:05.830Z,99026.81
2023-02-25T04:49:44.613Z,99026.88
2023-02-25T04:52:15.055Z,99023.03
2023-02-25T04:54:45.297Z,99022.78
2023-02-25T04:57:14.469Z,99022.16
2023-02-25T04:59:42.562Z,99024.44
2023-02-25T05:02:10.279Z,99029.38
2023-02-25T05:04:42.400Z,99026.81
2023-02-25T05:07:11.520Z,99033.75
2023-02-25T05:09:41.357Z,99041.34
2023-02-25T05:12:12.483Z,99040.28
2023-02-25T05:14:40.321Z,99031.53
2023-02-25T05:17:08.067Z,99038.88
2023-02-25T05:19:35.651Z,99040.81
2023-02-25T05:22:03.701Z,99028.44
2023-02-25T05:24:31.468Z,99032.75
2023-02-25T05:27:08.355Z,99029.66
2023-02-25T05:29:37.657Z,99029.94
2023-02-25T05:32:06.096Z,99038.53
2023-02-25T05:34:34.020Z,99050.63
2023-02-25T05:37:13.630Z,99030.94
2023-02-25T05:39:41.530Z,99039.78
2023-02-25T05:42:09.044Z,99032.75
2023-02-25T05:44:38.349Z,99023.41
2023-02-25T05:47:07.511Z,99032.22
2023-02-25T05:49:36.979Z,99038.34
2023-02-25T05:52:04.671Z,99041.63
2023-02-25T05:54:33.498Z,99034.72
2023-02-25T05:57:01.340Z,99035.75
2023-02-25T05:59:28.903Z,99037.13
2023-02-25T06:01:57.842Z,99044.84
2023-02-25T06:04:26.093Z,99046.13
2023-02-25T06:06:53.960Z,99051.00
2023-02-25T06:09:22.862Z,99046.94
2023-02-25T06:11:54.466Z,99043.66
2023-02-25T06:14:22.253Z,99050.34
2023-02-25T06:16:51.410Z,99042.06
2023-02-25T06:19:21.370Z,99049.63
2023-02-25T06:21:49.921Z,99046.78
2023-02-25T06:24:17.545Z,99053.28
2023-02-25T06:26:45.674Z,99050.56
2023-02-25T06:29:17.624Z,99045.50
2023-02-25T06:31:45.486Z,99059.25
2023-02-25T06:34:13.187Z,99069.59
2023-02-25T06:36:42.279Z,99068.22
2023-02-25T06:39:10.076Z,99073.38
2023-02-25T06:41:40.040Z,99069.88
2023-02-25T06:44:07.646Z,99075.63
2023-02-25T06:46:35.662Z,99089.38
2023-02-25T06:49:06.412Z,99078.47
2023-02-25T06:51:34.519Z,99083.91
2023-02-25T06:54:05.031Z,99082.91
2023-02-25T06:56:32.679Z,99079.41
2023-02-25T06:59:00.274Z,99082.41
2023-02-25T07:01:28.043Z,99087.09
2023-02-25T07:03:55.597Z,99083.81
2023-02-25T07:06:23.724Z,99090.50
2023-02-25T07:08:51.975Z,99085.00
2023-02-25T07:11:33.671Z,99072.56
2023-02-25T07:14:04.662Z,99080.78
2023-02-25T07:16:34.148Z,99086.31
2023-02-25T07:21:47.091Z,99097.22
2023-02-25T07:24:17.551Z,99098.78
2023-02-25T07:26:46.786Z,99102.19
2023-02-25T07:29:17.552Z,99102.63
2023-02-25T07:31:45.930Z,99100.25
2023-02-25T07:34:14.332Z,99103.00
2023-02-25T07:36:42.277Z,99098.13
2023-02-25T07:39:12.402Z,99103.94
2023-02-25T07:41:42.664Z,99113.16
2023-02-25T07:44:11.634Z,99111.84
2023-02-25T07:46:39.506Z,99116.97
2023-02-25T07:49:08.821Z,99118.38
2023-02-25T07:51:36.386Z,99110.66
2023-02-25T07:54:05.888Z,99116.59
2023-02-25T07:56:35.975Z,99111.66
2023-02-25T07:59:03.969Z,99117.13
2023-02-25T08:01:34.710Z,99127.00
2023-02-25T08:04:05.682Z,99120.56
2023-02-25T08:06:37.500Z,99119.75
2023-02-25T08:09:05.719Z,99129.66
2023-02-25T08:11:33.834Z,99124.84
2023-02-25T08:14:11.426Z,99121.34
2023-02-25T08:16:41.867Z,99126.41
2023-02-25T08:19:09.512Z,99123.66
2023-02-25T08:21:37.409Z,99127.66
2023-02-25T08:24:05.765Z,99123.66
2023-02-25T08:26:33.643Z,99132.22
2023-02-25T08:29:01.488Z,99138.78
2023-02-25T08:31:29.749Z,99141.34
2023-02-25T08:33:59.663Z,99134.09
2023-02-25T08:36:30.417Z,99134.09
2023-02-25T08:38:59.536Z,99143.28
2023-02-25T08:41:29.769Z,99139.41
2023-02-25T08:44:00.152Z,99139.16
2023-02-25T08:46:29.421Z,99138.78
2023-02-25T08:48:57.529Z,99138.69
2023-02-25T08:51:34.133Z,99144.47
2023-02-25T08:54:04.075Z,99138.56
2023-02-25T08:56:32.122Z,99142.53
2023-02-25T08:58:59.913Z,99143.66
2023-02-25T09:01:41.928Z,99142.72
2023-02-25T09:04:09.425Z,99144.00
2023-02-25T09:06:38.584Z,99150.09
2023-02-25T09:09:06.437Z,99153.63
2023-02-25T09:11:34.851Z,99146.31
2023-02-25T09:14:02.488Z,99154.06
2023-02-25T09:16:31.426Z,99146.09
2023-02-25T09:18:59.418Z,99146.94
2023-02-25T09:21:27.026Z,99149.88
2023-02-25T09:23:56.124Z,99160.34
2023-02-25T09:26:23.692Z,99153.09
2023-02-25T09:28:51.295Z,99160.72
2023-02-25T09:31:19.410Z,99156.97
2023-02-25T09:33:47.180Z,99149.91
2023-02-25T09:36:17.062Z,99164.22
2023-02-25T09:38:46.028Z,99154.22
2023-02-25T09:41:24.830Z,99147.44
2023-02-25T09:44:02.788Z,99143.16
2023-02-25T09:46:31.808Z,99141.38
2023-02-25T09:49:02.550Z,99139.94
2023-02-25T09:51:35.064Z,99135.97
2023-02-25T09:54:14.400Z,99140.66
2023-02-25T09:56:43.539Z,99135.63
2023-02-25T09:59:16.421Z,99141.63
2023-02-25T10:01:51.784Z,99125.66
2023-02-25T10:04:29.792Z,99121.34
2023-02-25T10:07:02.393Z,99119.69
2023-02-25T10:09:38.329Z,99115.78
2023-02-25T10:12:19.422Z,99126.88
2023-02-25T10:15:05.930Z,99116.56
2023-02-25T10:17:44.274Z,99122.47
2023-02-25T10:20:26.567Z,99127.25
2023-02-25T10:23:03.435Z,99123.72
2023-02-25T10:25:36.100Z,99110.69
2023-02-25T10:28:19.049Z,99120.72
2023-02-25T10:30:57.305Z,99120.22
2023-02-25T10:33:26.888Z,99118.16
2023-02-25T10:35:58.694Z,99117.31
2023-02-25T10:38:26.255Z,99123.56
2023-02-25T10:40:58.526Z,99118.88
2023-02-25T10:43:28.367Z,99120.72
2023-02-25T10:46:01.852Z,99118.56
2023-02-25T10:48:32.000Z,99123.34
2023-02-25T10:51:07.025Z,99128.13
2023-02-25T10:53:35.316Z,99125.25
2023-02-25T10:56:04.148Z,99125.25
2023-02-25T10:58:38.191Z,99119.69
2023-02-25T11:01:12.320Z,99127.72
2023-02-25T11:03:46.753Z,99117.00
2023-02-25T11:06:24.428Z,99119.91
2023-02-25T11:08:54.601Z,99121.31
2023-02-25T11:11:24.513Z,99113.66
2023-02-25T11:14:06.138Z,99113.41
2023-02-25T11:16:36.508Z,99108.75
2023-02-25T11:19:14.899Z,99116.34
2023-02-25T11:21:43.060Z,99122.44
2023-02-25T11:24:15.491Z,99107.09
2023-02-25T11:26:46.006Z,99106.13
2023-02-25T11:29:18.942Z,99117.41
2023-02-25T11:31:50.980Z,99106.84
2023-02-25T11:34:23.688Z,99115.31
2023-02-25T11:36:53.072Z,99107.06
2023-02-25T11:39:23.190Z,99141.50
2023-02-25T11:41:52.028Z,99158.69
2023-02-25T11:44:29.078Z,99155.47
2023-02-25T11:47:04.214Z,99144.00
2023-02-25T11:49:53.747Z,99143.69
2023-02-25T11:52:28.560Z,99148.00
2023-02-25T11:55:12.640Z,99153.53
2023-02-25T11:57:53.205Z,99154.53
2023-02-25T12:00:28.540Z,99151.97
2023-02-25T12:03:11.203Z,99146.81
2023-02-25T12:05:53.332Z,99159.19
2023-02-25T12:08:40.121Z,99153.09
2023-02-25T12:11:28.793Z,99152.28
2023-02-25T12:14:35.432Z,99151.22
2023-02-25T12:17:40.514Z,99149.28
2023-02-25T12:20:59.995Z,99146.03
2023-02-25T12:23:58.234Z,99143.81
2023-02-25T12:26:37.460Z,99148.91
2023-02-25T12:29:34.650Z,99141.44
2023-02-25T12:32:15.402Z,99138.47
2023-02-25T12:35:06.969Z,99133.00
2023-02-25T12:37:58.136Z,99144.91
2023-02-25T12:40:42.002Z,99152.84
2023-02-25T12:43:26.122Z,99148.25
2023-02-25T12:46:15.068Z,99140.59
2023-02-25T12:49:05.503Z,99138.63
2023-02-25T12:52:07.777Z,99140.53
2023-02-25T12:54:58.651Z,99136.00
2023-02-25T12:57:40.718Z,99129.47
2023-02-25T13:00:30.386Z,99134.97
2023-02-25T13:03:23.933Z,99137.97
2023-02-25T13:06:12.899Z,99136.38
2023-02-25T13:09:00.939Z,99131.34
2023-02-25T13:12:07.296Z,99135.41
2023-02-25T13:14:41.411Z,99142.66
2023-02-25T13:17:27.968Z,99125.66
2023-02-25T13:20:19.499Z,99133.03
2023-02-25T13:23:00.306Z,99115.69
2023-02-25T13:25:45.379Z,99111.34
2023-02-25T13:28:26.532Z,99109.47
2023-02-25T13:31:00.414Z,99110.91
2023-02-25T13:33:56.089Z,99107.88
2023-02-25T13:36:43.815Z,99118.81
2023-02-25T13:39:30.968Z,99111.59
2023-02-25T13:42:12.735Z,99117.19
2023-02-25T13:45:02.944Z,99115.31
2023-02-25T13:47:49.227Z,99129.66
2023-02-25T13:50:40.732Z,99132.47
2023-02-25T13:53:28.001Z,99147.19
2023-02-25T13:56:20.701Z,99152.97
2023-02-25T13:59:02.942Z,99156.84
2023-02-25T14:01:42.914Z,99145.66
2023-02-25T14:04:46.093Z,99149.78
2023-02-25T14:07:32.254Z,99160.81
2023-02-25T14:10:19.372Z,99162.59
2023-02-25T14:13:01.832Z,99164.69
2023-02-25T14:15:39.106Z,99175.25
2023-02-25T14:18:44.592Z,99191.63
2023-02-25T14:21:39.033Z,99192.81
2023-02-25T14:24:13.352Z,99205.66
2023-02-25T14:27:03.411Z,99209.50
2023-02-25T14:29:44.675Z,99212.03
2023-02-25T14:32:28.303Z,99221.13
2023-02-25T14:35:13.920Z,99223.31
2023-02-25T14:37:55.317Z,99227.41
2023-02-25T14:40:30.918Z,99234.72
2023-02-25T14:43:13.254Z,99235.22
2023-02-25T14:45:45.498Z,99239.53
2023-02-25T14:48:20.861Z,99251.97
2023-02-25T14:50:59.081Z,99244.47
2023-02-25T14:53:46.195Z,99249.28
2023-02-25T14:56:48.866Z,99259.19
2023-02-25T14:59:46.738Z,99263.63
2023-02-25T15:02:46.241Z,99261.50
2023-02-25T15:05:37.980Z,99267.19
2023-02-25T15:08:44.233Z,99276.13
2023-02-25T15:11:39.032Z,99265.22
2023-02-25T15:14:26.633Z,99256.78
2023-02-25T15:17:11.846Z,99255.13
2023-02-25T15:19:54.641Z,99256.28
2023-02-25T15:22:32.646Z,99263.00
2023-02-25T15:25:41.237Z,99266.84
2023-02-25T15:28:34.638Z,99264.47
2023-02-25T15:31:29.553Z,99276.94
2023-02-25T15:34:33.749Z,99272.25
2023-02-25T15:37:27.221Z,99266.28
2023-02-25T15:39:58.525Z,99276.34
2023-02-25T15:42:55.624Z,99280.31
2023-02-25T15:45:42.255Z,99282.88
2023-02-25T15:48:32.250Z,99288.59
2023-02-25T15:51:06.225Z,99294.28
2023-02-25T15:53:49.088Z,99269.50
2023-02-25T15:56:47.915Z,99290.78
2023-02-25T15:59:43.357Z,99293.88
2023-02-25T16:02:42.403Z,99284.44
2023-02-25T16:05:24.533Z,99288.31
2023-02-25T16:08:07.945Z,99294.41
2023-02-25T16:10:40.856Z,99291.16
2023-02-25T16:13:15.688Z,99303.50
2023-02-25T16:15:50.588Z,99299.06
2023-02-25T16:18:26.098Z,99313.09
2023-02-25T16:20:59.529Z,99310.84
2023-02-25T16:23:28.401Z,99313.50
2023-02-25T16:26:08.138Z,99324.13
2023-02-25T16:28:48.176Z,99322.28
2023-02-25T16:31:23.896Z,99319.66
2023-02-25T16:33:58.281Z,99317.91
2023-02-25T16:36:34.633Z,99324.84
2023-02-25T16:39:08.309Z,99329.78
2023-02-25T16:41:38.937Z,99335.56
2023-02-25T16:44:07.679Z,99345.53
2023-02-25T16:46:41.492Z,99347.72
2023-02-25T16:49:12.074Z,99356.16
2023-02-25T16:51:42.420Z,99359.97
2023-02-25T16:54:15.050Z,99360.84
2023-02-25T16:57:04.324Z,99361.38
2023-02-25T16:59:34.303Z,99369.16
2023-02-25T17:02:25.027Z,99377.13
2023-02-25T17:04:54.876Z,99379.81
2023-02-25T17:07:27.694Z,99392.72
2023-02-25T17:09:59.506Z,99397.06
2023-02-25T17:12:31.110Z,99402.22
2023-02-25T17:15:01.609Z,99407.22
2023-02-25T17:17:34.454Z,99397.75
2023-02-25T17:20:04.574Z,99406.72
2023-02-25T17:22:33.331Z,99415.66
2023-02-25T17:25:02.095Z,99422.16
2023-02-25T17:27:29.757Z,99431.09
2023-02-25T17:29:57.455Z,99437.75
2023-02-25T17:32:29.460Z,99441.06
2023-02-25T17:35:02.512Z,99440.72
2023-02-25T17:37:32.531Z,99449.84
2023-02-25T17:40:08.153Z,99453.13
2023-02-25T17:42:39.010Z,99452.00
2023-02-25T17:45:28.126Z,99455.97
2023-02-25T17:47:55.831Z,99464.75
2023-02-25T17:50:30.669Z,99462.94
2023-02-25T17:52:59.175Z,99460.63
2023-02-25T17:55:29.751Z,99465.94
2023-02-25T17:58:00.494Z,99467.91
2023-02-25T18:00:32.305Z,99469.34
2023-02-25T18:03:17.433Z,99476.50
2023-02-25T18:05:53.563Z,99471.84
2023-02-25T18:08:22.546Z,99476.00
2023-02-25T18:10:54.945Z,99476.81
2023-02-25T18:13:27.811Z,99485.25
2023-02-25T18:16:32.095Z,99474.81
2023-02-25T18:19:01.400Z,99481.78
2023-02-25T18:21:30.428Z,99492.69
2023-02-25T18:23:59.979Z,99484.25
2023-02-25T18:26:28.070Z,99490.19
2023-02-25T18:28:57.619Z,99501.47
2023-02-25T18:31:25.662Z,99496.25
2023-02-25T18:33:54.970Z,99495.97
2023-02-25T18:36:25.764Z,99497.59
2023-02-25T18:38:58.108Z,99497.25
2023-02-25T18:41:25.891Z,99497.19
2023-02-25T18:43:54.566Z,99505.06
2023-02-25T18:46:22.585Z,99500.63
2023-02-25T18:48:50.569Z,99507.22
2023-02-25T18:51:18.156Z,99503.78
2023-02-25T18:53:46.729Z,99507.53
2023-02-25T18:56:21.201Z,99505.56
2023-02-25T18:58:48.893Z,99513.72
2023-02-25T19:01:23.422Z,99519.63
2023-02-25T19:03:53.752Z,99520.13
2023-02-25T19:06:22.634Z,99522.19
2023-02-25T19:08:50.474Z,99529.59
2023-02-25T19:11:23.962Z,99532.66
2023-02-25T19:13:52.708Z,99536.22
2023-02-25T19:16:20.529Z,99543.50
2023-02-25T19:18:48.224Z,99543.25
2023-02-25T19:21:18.679Z,99556.81
2023-02-25T19:23:47.098Z,99552.84
2023-02-25T19:26:16.143Z,99561.28
2023-02-25T19:28:45.187Z,99563.69
2023-02-25T19:31:13.369Z,99571.22
2023-02-25T19:33:41.102Z,99575.59
2023-02-25T19:36:09.512Z,99577.31
2023-02-25T19:38:37.291Z,99583.53
2023-02-25T19:41:07.193Z,99592.38
2023-02-25T19:43:35.111Z,99590.28
2023-02-25T19:46:09.357Z,99592.19
2023-02-25T19:48:37.319Z,99599.13
2023-02-25T19:51:09.171Z,99605.31
2023-02-25T19:53:37.195Z,99606.66
2023-02-25T19:56:05.425Z,99604.59
2023-02-25T19:58:34.685Z,99615.41
2023-02-25T20:01:05.665Z,99618.25
2023-02-25T20:03:33.769Z,99621.63
2023-02-25T20:06:06.685Z,99622.78
2023-02-25T20:08:36.633Z,99634.19
2023-02-25T20:11:04.526Z,99627.91
2023-02-25T20:13:32.263Z,99635.00
2023-02-25T20:16:17.854Z,99639.03
2023-02-25T20:18:49.912Z,99636.22
2023-02-25T20:21:17.947Z,99643.94
2023-02-25T20:23:45.617Z,99653.38
2023-02-25T20:26:15.151Z,99657.91
2023-02-25T20:28:42.844Z,99656.72
2023-02-25T20:31:13.700Z,99658.38
2023-02-25T20:33:44.485Z,99654.97
2023-02-25T20:36:21.029Z,99650.56
2023-02-25T20:39:02.684Z,99660.41
2023-02-25T20:41:30.981Z,99666.81
2023-02-25T20:43:58.723Z,99661.69
2023-02-25T20:46:29.650Z,99671.28
2023-02-25T20:48:57.452Z,99671.13
2023-02-25T20:51:25.538Z,99675.59
2023-02-25T20:53:55.740Z,99689.72
2023-02-25T20:56:26.122Z,99687.34
2023-02-25T20:58:54.845Z,99692.81
2023-02-25T21:01:22.995Z,99683.22
2023-02-25T21:03:52.007Z,99697.34
2023-02-25T21:06:22.528Z,99702.19
2023-02-25T21:08:51.762Z,99708.81
2023-02-25T21:11:20.386Z,99708.41
2023-02-25T21:13:48.278Z,99707.84
2023-02-25T21:16:16.935Z,99704.66
2023-02-25T21:18:47.971Z,99708.56
2023-02-25T21:21:20.157Z,99708.97
2023-02-25T21:23:49.144Z,99707.72
2023-02-25T21:26:16.762Z,99716.13
2023-02-25T21:28:45.996Z,99710.88
2023-02-25T21:31:16.764Z,99712.34
2023-02-25T21:33:44.508Z,99714.47
2023-02-25T21:36:12.879Z,99714.03
2023-02-25T21:38:41.819Z,99722.63
2023-02-25T21:41:11.758Z,99731.28
2023-02-25T21:43:40.714Z,99723.78
2023-02-25T21:46:12.138Z,99729.13
2023-02-25T21:48:43.696Z,99732.63
2023-02-25T21:51:17.193Z,99734.00
2023-02-25T21:53:47.051Z,99733.31
2023-02-25T21:56:18.367Z,99744.47
2023-02-25T21:58:46.386Z,99742.97
2023-02-25T22:01:16.085Z,99739.66
2023-02-25T22:03:44.574Z,99740.63
2023-02-25T22:06:14.342Z,99739.19
2023-02-25T22:08:43.264Z,99742.00
2023-02-25T22:11:17.202Z,99741.31
2023-02-25T22:13:45.151Z,99738.00
2023-02-25T22:16:14.457Z,99741.34
2023-02-25T22:18:42.415Z,99743.13
2023-02-25T22:21:15.834Z,99739.63
2023-02-25T22:23:44.414Z,99745.00
2023-02-25T22:26:14.919Z,99740.44
2023-02-25T22:28:49.766Z,99742.28
2023-02-25T22:31:19.793Z,99742.28
2023-02-25T22:33:47.626Z,99737.88
2023-02-25T22:39:05.617Z,99744.69
2023-02-25T22:41:33.385Z,99740.25
2023-02-25T22:44:03.073Z,99746.66
2023-02-25T22:46:32.742Z,99734.72
2023-02-25T22:49:00.765Z,99748.75
2023-02-25T22:51:30.096Z,99748.50
2023-02-25T22:53:57.989Z,99746.97
2023-02-25T22:56:26.582Z,99755.44
2023-02-25T22:58:54.505Z,99761.69
2023-02-25T23:01:25.958Z,99763.34
2023-02-25T23:03:55.924Z,99767.25
2023-02-25T23:06:41.899Z,99775.72
2023-02-25T23:09:11.542Z,99773.09
2023-02-25T23:11:42.069Z,99776.69
2023-02-25T23:14:09.690Z,99773.38
2023-02-25T23:16:40.696Z,99772.81
2023-02-25T23:19:10.427Z,99779.03
2023-02-25T23:21:39.045Z,99781.50
2023-02-25T23:24:09.040Z,99791.97
2023-02-25T23:26:40.240Z,99787.66
2023-02-25T23:29:09.796Z,99788.97
2023-02-25T23:31:42.557Z,99792.00
2023-02-25T23:34:12.832Z,99793.56
2023-02-25T23:36:41.911Z,99791.22
2023-02-25T23:39:10.220Z,99776.63
2023-02-25T23:41:39.077Z,99776.66
2023-02-25T23:44:08.342Z,99782.78
2023-02-25T23:46:36.728Z,99782.75
2023-02-25T23:49:07.868Z,99787.22
2023-02-25T23:51:36.432Z,99785.81
2023-02-25T23:54:06.781Z,99789.19
2023-02-25T23:56:35.430Z,99790.00
2023-02-25T23:59:03.639Z,99787.41
